Longshore — 3FHW9 — position and weather

sailwx.info

Track history (hours):
 
Tides and Currents Weather Stations Pressure Air Temp Water Temp Dewpoint Dewpoint Depression Visibility Wind Speed Wind Dir Waves Ship Positions

Longshore

Last reported at 2017-Nov-22 21:07 UTC. Time now 2017-Nov-24 09:40 UTC.
Position N 36°38' E 013°49'.

Length 180 m; draft 10.1 m.

Type: Cargo ship. MMSI: 371985000.

Date/timePositionNaut miles runAvg speedWind from/ knotsBaromVisibWave heightAir tempDewpointWater temp
2017-Nov-22 21:07N 36°38' E 013°49'112.4
2017-Nov-22 21:00N 36°37' E 013°51'712.5
2017-Nov-22 20:26N 36°35' E 013°59'612.5
2017-Nov-22 19:57N 36°33' E 014°06'812.4
2017-Nov-22 19:17N 36°31' E 014°16'  
2017-Nov-17 15:55N 44°27' E 037°26'513.0
2017-Nov-17 15:30N 44°29' E 037°33'1711.1
2017-Nov-17 14:01N 44°40' E 037°50'0 6.5
2017-Nov-17 14:00N 44°40' E 037°50'1 1.1
2017-Nov-17 13:16N 44°41' E 037°51'0 0.0
2017-Nov-17 12:58N 44°41' E 037°51'0 0.1
2017-Nov-17 12:28N 44°41' E 037°51'0 0.2
2017-Nov-17 11:58N 44°41' E 037°51'0 0.0
2017-Nov-17 11:28N 44°41' E 037°51'0 0.1
2017-Nov-17 10:58N 44°41' E 037°51'0 0.1
2017-Nov-17 10:28N 44°41' E 037°51'0 0.0
2017-Nov-17 09:58N 44°41' E 037°51'0 0.2
2017-Nov-17 09:28N 44°41' E 037°51'0 0.1
2017-Nov-17 09:00N 44°41' E 037°51'0 0.1
2017-Nov-17 08:30N 44°41' E 037°51'0 0.0
2017-Nov-17 08:00N 44°41' E 037°51'0 0.1
2017-Nov-17 07:30N 44°41' E 037°51'1 2.0
2017-Nov-17 07:00N 44°42' E 037°50'2 4.8
2017-Nov-17 06:30N 44°43' E 037°48'1 0.1
2017-Nov-16 21:55N 44°44' E 037°47'0 0.0
2017-Nov-16 21:28N 44°44' E 037°47'0 0.0
2017-Nov-16 20:58N 44°44' E 037°47'0 0.0
2017-Nov-16 20:28N 44°44' E 037°47'0 0.0
2017-Nov-16 19:46N 44°44' E 037°47'0 0.0
2017-Nov-16 19:28N 44°44' E 037°47'0 0.0
2017-Nov-16 18:58N 44°44' E 037°47'0 0.0
2017-Nov-16 18:28N 44°44' E 037°47'0 0.0
2017-Nov-16 17:58N 44°44' E 037°47'0 0.0
2017-Nov-16 17:28N 44°44' E 037°47'0 0.0
2017-Nov-16 16:58N 44°44' E 037°47'0 0.0
2017-Nov-16 16:28N 44°44' E 037°47'0 0.0
2017-Nov-16 15:58N 44°44' E 037°47'0 0.0
2017-Nov-16 15:28N 44°44' E 037°47'0 0.0
2017-Nov-16 14:58N 44°44' E 037°47'0 0.0
2017-Nov-16 14:28N 44°44' E 037°47'0 0.0
2017-Nov-16 13:58N 44°44' E 037°47'0 0.0
2017-Nov-16 13:28N 44°44' E 037°47'0 0.0
2017-Nov-16 03:43N 44°44' E 037°47'0 0.0
2017-Nov-16 03:28N 44°44' E 037°47'0 0.0
2017-Nov-16 02:58N 44°44' E 037°47'0 0.0
2017-Nov-16 02:28N 44°44' E 037°47'0 0.0
2017-Nov-16 01:58N 44°44' E 037°47'0 0.0
2017-Nov-16 01:28N 44°44' E 037°47'0 0.0
2017-Nov-16 00:58N 44°44' E 037°47'0 0.0
2017-Nov-16 00:28N 44°44' E 037°47'0 0.3
2017-Nov-16 00:01N 44°44' E 037°47'2 3.6
2017-Nov-15 23:30N 44°42' E 037°49'3 6.8
2017-Nov-15 23:00N 44°39' E 037°51'2 4.0
2017-Nov-15 22:31N 44°37' E 037°51'2 4.4
2017-Nov-15 22:01N 44°35' E 037°51'5 9.2
2017-Nov-15 21:30N 44°30' E 037°50'1 2.6
2017-Nov-15 21:00N 44°29' E 037°49'1 1.1
2017-Nov-15 20:31N 44°30' E 037°48'0 1.0
2017-Nov-15 20:00N 44°30' E 037°48'1 1.1
2017-Nov-15 19:30N 44°31' E 037°48'1 1.1
2017-Nov-15 19:00N 44°31' E 037°48'1 2.8
2017-Nov-15 18:31N 44°33' E 037°48'2 4.4
2017-Nov-15 18:01N 44°34' E 037°50'1 1.2
2017-Nov-15 17:30N 44°35' E 037°50'2 3.9
2017-Nov-15 17:00N 44°34' E 037°53'2 3.7
2017-Nov-15 16:30N 44°34' E 037°56'0 0.2
2017-Nov-15 15:59N 44°34' E 037°56'0 0.1
2017-Nov-15 15:29N 44°34' E 037°56'0 0.0
2017-Nov-15 14:59N 44°34' E 037°56'0 0.0
2017-Nov-15 13:56N 44°34' E 037°56'0 0.1
2017-Nov-15 13:29N 44°34' E 037°56'0 0.0
2017-Nov-15 12:59N 44°34' E 037°56'0 0.0
2017-Nov-15 12:29N 44°34' E 037°56'0 0.0
2017-Nov-15 11:59N 44°34' E 037°56'0 0.0
2017-Nov-15 11:29N 44°34' E 037°56'0 0.0
2017-Nov-15 10:59N 44°34' E 037°56'0 0.0
2017-Nov-15 10:29N 44°34' E 037°56'0 0.0
2017-Nov-15 09:59N 44°34' E 037°56'0 0.0
2017-Nov-15 09:29N 44°34' E 037°56'0 0.1
2017-Nov-15 08:59N 44°34' E 037°56'0 0.0
2017-Nov-15 08:29N 44°34' E 037°56'0 0.0
2017-Nov-15 07:59N 44°34' E 037°56'0 0.0
2017-Nov-15 07:29N 44°34' E 037°56'0 0.0
2017-Nov-15 06:59N 44°34' E 037°56'0 0.1
2017-Nov-15 06:29N 44°34' E 037°56'0 0.0
2017-Nov-15 05:59N 44°34' E 037°56'0 0.0
2017-Nov-15 05:29N 44°34' E 037°56'0 0.0
2017-Nov-15 04:56N 44°34' E 037°56'0 0.1
2017-Nov-15 04:29N 44°34' E 037°56'0 0.1
2017-Nov-15 03:59N 44°34' E 037°56'0 0.0
2017-Nov-15 03:29N 44°34' E 037°56'0 0.0
2017-Nov-15 02:59N 44°34' E 037°56'0 0.2
2017-Nov-15 02:29N 44°34' E 037°56'0 0.2
2017-Nov-15 01:56N 44°34' E 037°55'0 0.1
2017-Nov-15 01:29N 44°34' E 037°55'0 0.3
2017-Nov-15 00:59N 44°34' E 037°56'0 0.0
2017-Nov-15 00:29N 44°34' E 037°56'0 0.2
2017-Nov-14 23:59N 44°34' E 037°56'0 0.1
2017-Nov-14 23:29N 44°34' E 037°56'0 0.1
2017-Nov-14 22:59N 44°34' E 037°56'0 0.0
2017-Nov-14 22:29N 44°34' E 037°56'0 0.0
2017-Nov-14 21:59N 44°34' E 037°56'0 0.1
2017-Nov-14 21:29N 44°34' E 037°56'0 0.1
2017-Nov-14 20:59N 44°34' E 037°56'0 0.0
2017-Nov-14 20:29N 44°34' E 037°56'0 0.0
2017-Nov-14 19:56N 44°34' E 037°56'0 0.0
2017-Nov-14 19:29N 44°34' E 037°56'0 0.1
2017-Nov-14 18:56N 44°34' E 037°56'0 0.0
2017-Nov-14 18:29N 44°34' E 037°56'0 0.0
2017-Nov-14 17:59N 44°34' E 037°56'0 0.0
2017-Nov-14 17:29N 44°34' E 037°56'0 0.0
2017-Nov-14 16:59N 44°34' E 037°56'0 0.1
2017-Nov-14 16:29N 44°34' E 037°55'0 0.1
2017-Nov-14 15:59N 44°34' E 037°55'0 0.0
2017-Nov-14 15:29N 44°34' E 037°55'0 0.1
2017-Nov-14 14:59N 44°34' E 037°55'0 0.0
2017-Nov-14 14:29N 44°34' E 037°55'0 0.1
2017-Nov-14 13:59N 44°34' E 037°56'0 0.2
2017-Nov-14 13:29N 44°34' E 037°56'0 0.0
2017-Nov-14 12:59N 44°34' E 037°56'0 0.1
2017-Nov-14 12:29N 44°34' E 037°56'0 0.0
2017-Nov-14 11:59N 44°34' E 037°56'0 0.1
2017-Nov-14 11:29N 44°34' E 037°56'0 0.0
2017-Nov-14 10:59N 44°34' E 037°56'0 0.0
2017-Nov-14 10:29N 44°34' E 037°56'0 0.1
2017-Nov-14 09:59N 44°34' E 037°55'0 0.1
2017-Nov-14 09:29N 44°34' E 037°56'0 0.1
2017-Nov-14 08:59N 44°34' E 037°55'0 0.0
2017-Nov-14 08:29N 44°34' E 037°55'0 0.1
2017-Nov-14 07:59N 44°34' E 037°55'0 0.0
2017-Nov-14 07:29N 44°34' E 037°55'0 0.0
2017-Nov-14 06:59N 44°34' E 037°55'0 0.0
2017-Nov-14 06:29N 44°34' E 037°55'0 0.0
2017-Nov-14 05:59N 44°34' E 037°55'0 0.0
2017-Nov-14 05:29N 44°34' E 037°55'0 0.0
2017-Nov-14 04:59N 44°34' E 037°55'0 0.0
2017-Nov-14 04:29N 44°34' E 037°55'0 0.0
2017-Nov-14 03:59N 44°34' E 037°55'0 0.0
2017-Nov-14 03:29N 44°34' E 037°55'0 0.1
2017-Nov-14 02:59N 44°34' E 037°56'0 0.1
2017-Nov-14 02:29N 44°34' E 037°55'0 0.0
2017-Nov-14 01:59N 44°34' E 037°55'0 0.0
2017-Nov-14 01:29N 44°34' E 037°55'0 0.0
2017-Nov-14 00:59N 44°34' E 037°55'0 0.0
2017-Nov-14 00:29N 44°34' E 037°55'0 0.0
2017-Nov-13 23:59N 44°34' E 037°55'0 0.0
2017-Nov-13 23:29N 44°34' E 037°55'0 0.0
2017-Nov-13 22:59N 44°34' E 037°55'0 0.0
2017-Nov-13 22:26N 44°34' E 037°55'0 0.0
2017-Nov-13 21:59N 44°34' E 037°55'0 0.0
2017-Nov-13 01:56N 44°34' E 037°56'0 0.0
2017-Nov-13 01:29N 44°34' E 037°56'0 0.0
2017-Nov-13 00:59N 44°34' E 037°56'0 0.0
2017-Nov-13 00:29N 44°34' E 037°56'0 0.0
2017-Nov-12 23:59N 44°34' E 037°56'0 0.1
2017-Nov-12 23:29N 44°34' E 037°56'0 0.0
2017-Nov-12 22:59N 44°34' E 037°56'0 0.0
2017-Nov-12 22:29N 44°34' E 037°56'0 0.0
2017-Nov-12 21:59N 44°34' E 037°56'0 0.1
2017-Nov-12 21:29N 44°34' E 037°56'  
Track history (hours):
 
Tides and Currents Weather Stations Pressure Air Temp Water Temp Dewpoint Dewpoint Depression Visibility Wind Speed Wind Dir Waves Ship Positions

Longshore

Last reported at 2017-Nov-22 21:07 UTC. Time now 2017-Nov-24 09:40 UTC.
Position N 36°38' E 013°49'.

Length 180 m; draft 10.1 m.

Type: Cargo ship. MMSI: 371985000.

Date/timePositionNaut miles runAvg speedWind from/ knotsBaromVisibWave heightAir tempDewpointWater temp
2017-Nov-22 21:07N 36°38' E 013°49'112.4
2017-Nov-22 21:00N 36°37' E 013°51'712.5
2017-Nov-22 20:26N 36°35' E 013°59'612.5
2017-Nov-22 19:57N 36°33' E 014°06'812.4
2017-Nov-22 19:17N 36°31' E 014°16'  
2017-Nov-17 15:55N 44°27' E 037°26'513.0
2017-Nov-17 15:30N 44°29' E 037°33'1711.1
2017-Nov-17 14:01N 44°40' E 037°50'0 6.5
2017-Nov-17 14:00N 44°40' E 037°50'1 1.1
2017-Nov-17 13:16N 44°41' E 037°51'0 0.0
2017-Nov-17 12:58N 44°41' E 037°51'0 0.1
2017-Nov-17 12:28N 44°41' E 037°51'0 0.2
2017-Nov-17 11:58N 44°41' E 037°51'0 0.0
2017-Nov-17 11:28N 44°41' E 037°51'0 0.1
2017-Nov-17 10:58N 44°41' E 037°51'0 0.1
2017-Nov-17 10:28N 44°41' E 037°51'0 0.0
2017-Nov-17 09:58N 44°41' E 037°51'0 0.2
2017-Nov-17 09:28N 44°41' E 037°51'0 0.1
2017-Nov-17 09:00N 44°41' E 037°51'0 0.1
2017-Nov-17 08:30N 44°41' E 037°51'0 0.0
2017-Nov-17 08:00N 44°41' E 037°51'0 0.1
2017-Nov-17 07:30N 44°41' E 037°51'1 2.0
2017-Nov-17 07:00N 44°42' E 037°50'2 4.8
2017-Nov-17 06:30N 44°43' E 037°48'1 0.1
2017-Nov-16 21:55N 44°44' E 037°47'0 0.0
2017-Nov-16 21:28N 44°44' E 037°47'0 0.0
2017-Nov-16 20:58N 44°44' E 037°47'0 0.0
2017-Nov-16 20:28N 44°44' E 037°47'0 0.0
2017-Nov-16 19:46N 44°44' E 037°47'0 0.0
2017-Nov-16 19:28N 44°44' E 037°47'0 0.0
2017-Nov-16 18:58N 44°44' E 037°47'0 0.0
2017-Nov-16 18:28N 44°44' E 037°47'0 0.0
2017-Nov-16 17:58N 44°44' E 037°47'0 0.0
2017-Nov-16 17:28N 44°44' E 037°47'0 0.0
2017-Nov-16 16:58N 44°44' E 037°47'0 0.0
2017-Nov-16 16:28N 44°44' E 037°47'0 0.0
2017-Nov-16 15:58N 44°44' E 037°47'0 0.0
2017-Nov-16 15:28N 44°44' E 037°47'0 0.0
2017-Nov-16 14:58N 44°44' E 037°47'0 0.0
2017-Nov-16 14:28N 44°44' E 037°47'0 0.0
2017-Nov-16 13:58N 44°44' E 037°47'0 0.0
2017-Nov-16 13:28N 44°44' E 037°47'0 0.0
2017-Nov-16 03:43N 44°44' E 037°47'0 0.0
2017-Nov-16 03:28N 44°44' E 037°47'0 0.0
2017-Nov-16 02:58N 44°44' E 037°47'0 0.0
2017-Nov-16 02:28N 44°44' E 037°47'0 0.0
2017-Nov-16 01:58N 44°44' E 037°47'0 0.0
2017-Nov-16 01:28N 44°44' E 037°47'0 0.0
2017-Nov-16 00:58N 44°44' E 037°47'0 0.0
2017-Nov-16 00:28N 44°44' E 037°47'0 0.3
2017-Nov-16 00:01N 44°44' E 037°47'2 3.6
2017-Nov-15 23:30N 44°42' E 037°49'3 6.8
2017-Nov-15 23:00N 44°39' E 037°51'2 4.0
2017-Nov-15 22:31N 44°37' E 037°51'2 4.4
2017-Nov-15 22:01N 44°35' E 037°51'5 9.2
2017-Nov-15 21:30N 44°30' E 037°50'1 2.6
2017-Nov-15 21:00N 44°29' E 037°49'1 1.1
2017-Nov-15 20:31N 44°30' E 037°48'0 1.0
2017-Nov-15 20:00N 44°30' E 037°48'1 1.1
2017-Nov-15 19:30N 44°31' E 037°48'1 1.1
2017-Nov-15 19:00N 44°31' E 037°48'1 2.8
2017-Nov-15 18:31N 44°33' E 037°48'2 4.4
2017-Nov-15 18:01N 44°34' E 037°50'1 1.2
2017-Nov-15 17:30N 44°35' E 037°50'2 3.9
2017-Nov-15 17:00N 44°34' E 037°53'2 3.7
2017-Nov-15 16:30N 44°34' E 037°56'0 0.2
2017-Nov-15 15:59N 44°34' E 037°56'0 0.1
2017-Nov-15 15:29N 44°34' E 037°56'0 0.0
2017-Nov-15 14:59N 44°34' E 037°56'0 0.0
2017-Nov-15 13:56N 44°34' E 037°56'0 0.1
2017-Nov-15 13:29N 44°34' E 037°56'0 0.0
2017-Nov-15 12:59N 44°34' E 037°56'0 0.0
2017-Nov-15 12:29N 44°34' E 037°56'0 0.0
2017-Nov-15 11:59N 44°34' E 037°56'0 0.0
2017-Nov-15 11:29N 44°34' E 037°56'0 0.0
2017-Nov-15 10:59N 44°34' E 037°56'0 0.0
2017-Nov-15 10:29N 44°34' E 037°56'0 0.0
2017-Nov-15 09:59N 44°34' E 037°56'0 0.0
2017-Nov-15 09:29N 44°34' E 037°56'0 0.1
2017-Nov-15 08:59N 44°34' E 037°56'0 0.0
2017-Nov-15 08:29N 44°34' E 037°56'0 0.0
2017-Nov-15 07:59N 44°34' E 037°56'0 0.0
2017-Nov-15 07:29N 44°34' E 037°56'0 0.0
2017-Nov-15 06:59N 44°34' E 037°56'0 0.1
2017-Nov-15 06:29N 44°34' E 037°56'0 0.0
2017-Nov-15 05:59N 44°34' E 037°56'0 0.0
2017-Nov-15 05:29N 44°34' E 037°56'0 0.0
2017-Nov-15 04:56N 44°34' E 037°56'0 0.1
2017-Nov-15 04:29N 44°34' E 037°56'0 0.1
2017-Nov-15 03:59N 44°34' E 037°56'0 0.0
2017-Nov-15 03:29N 44°34' E 037°56'0 0.0
2017-Nov-15 02:59N 44°34' E 037°56'0 0.2
2017-Nov-15 02:29N 44°34' E 037°56'0 0.2
2017-Nov-15 01:56N 44°34' E 037°55'0 0.1
2017-Nov-15 01:29N 44°34' E 037°55'0 0.3
2017-Nov-15 00:59N 44°34' E 037°56'0 0.0
2017-Nov-15 00:29N 44°34' E 037°56'0 0.2
2017-Nov-14 23:59N 44°34' E 037°56'0 0.1
2017-Nov-14 23:29N 44°34' E 037°56'0 0.1
2017-Nov-14 22:59N 44°34' E 037°56'0 0.0
2017-Nov-14 22:29N 44°34' E 037°56'0 0.0
2017-Nov-14 21:59N 44°34' E 037°56'0 0.1
2017-Nov-14 21:29N 44°34' E 037°56'0 0.1
2017-Nov-14 20:59N 44°34' E 037°56'0 0.0
2017-Nov-14 20:29N 44°34' E 037°56'0 0.0
2017-Nov-14 19:56N 44°34' E 037°56'0 0.0
2017-Nov-14 19:29N 44°34' E 037°56'0 0.1
2017-Nov-14 18:56N 44°34' E 037°56'0 0.0
2017-Nov-14 18:29N 44°34' E 037°56'0 0.0
2017-Nov-14 17:59N 44°34' E 037°56'0 0.0
2017-Nov-14 17:29N 44°34' E 037°56'0 0.0
2017-Nov-14 16:59N 44°34' E 037°56'0 0.1
2017-Nov-14 16:29N 44°34' E 037°55'0 0.1
2017-Nov-14 15:59N 44°34' E 037°55'0 0.0
2017-Nov-14 15:29N 44°34' E 037°55'0 0.1
2017-Nov-14 14:59N 44°34' E 037°55'0 0.0
2017-Nov-14 14:29N 44°34' E 037°55'0 0.1
2017-Nov-14 13:59N 44°34' E 037°56'0 0.2
2017-Nov-14 13:29N 44°34' E 037°56'0 0.0
2017-Nov-14 12:59N 44°34' E 037°56'0 0.1
2017-Nov-14 12:29N 44°34' E 037°56'0 0.0
2017-Nov-14 11:59N 44°34' E 037°56'0 0.1
2017-Nov-14 11:29N 44°34' E 037°56'0 0.0
2017-Nov-14 10:59N 44°34' E 037°56'0 0.0
2017-Nov-14 10:29N 44°34' E 037°56'0 0.1
2017-Nov-14 09:59N 44°34' E 037°55'0 0.1
2017-Nov-14 09:29N 44°34' E 037°56'0 0.1
2017-Nov-14 08:59N 44°34' E 037°55'0 0.0
2017-Nov-14 08:29N 44°34' E 037°55'0 0.1
2017-Nov-14 07:59N 44°34' E 037°55'0 0.0
2017-Nov-14 07:29N 44°34' E 037°55'0 0.0
2017-Nov-14 06:59N 44°34' E 037°55'0 0.0
2017-Nov-14 06:29N 44°34' E 037°55'0 0.0
2017-Nov-14 05:59N 44°34' E 037°55'0 0.0
2017-Nov-14 05:29N 44°34' E 037°55'0 0.0
2017-Nov-14 04:59N 44°34' E 037°55'0 0.0
2017-Nov-14 04:29N 44°34' E 037°55'0 0.0
2017-Nov-14 03:59N 44°34' E 037°55'0 0.0
2017-Nov-14 03:29N 44°34' E 037°55'0 0.1
2017-Nov-14 02:59N 44°34' E 037°56'0 0.1
2017-Nov-14 02:29N 44°34' E 037°55'0 0.0
2017-Nov-14 01:59N 44°34' E 037°55'0 0.0
2017-Nov-14 01:29N 44°34' E 037°55'0 0.0
2017-Nov-14 00:59N 44°34' E 037°55'0 0.0
2017-Nov-14 00:29N 44°34' E 037°55'0 0.0
2017-Nov-13 23:59N 44°34' E 037°55'0 0.0
2017-Nov-13 23:29N 44°34' E 037°55'0 0.0
2017-Nov-13 22:59N 44°34' E 037°55'0 0.0
2017-Nov-13 22:26N 44°34' E 037°55'0 0.0
2017-Nov-13 21:59N 44°34' E 037°55'0 0.0
2017-Nov-13 01:56N 44°34' E 037°56'0 0.0
2017-Nov-13 01:29N 44°34' E 037°56'0 0.0
2017-Nov-13 00:59N 44°34' E 037°56'0 0.0
2017-Nov-13 00:29N 44°34' E 037°56'0 0.0
2017-Nov-12 23:59N 44°34' E 037°56'0 0.1
2017-Nov-12 23:29N 44°34' E 037°56'0 0.0
2017-Nov-12 22:59N 44°34' E 037°56'0 0.0
2017-Nov-12 22:29N 44°34' E 037°56'0 0.0
2017-Nov-12 21:59N 44°34' E 037°56'0 0.1
2017-Nov-12 21:29N 44°34' E 037°56'  

Dump ship's entire track history